sensor_id;sensor_type;location;lat;lon;timestamp;pressure;altitude;pressure_sealevel;temperature;humidity
66887;BME280;67239;51.680;5.976;2023-03-05T00:01:26;102133.31;;;4.13;83.50
66887;BME280;67239;51.680;5.976;2023-03-05T00:03:56;102128.06;;;4.10;83.31
66887;BME280;67239;51.680;5.976;2023-03-05T00:06:25;102127.94;;;4.03;83.19
66887;BME280;67239;51.680;5.976;2023-03-05T00:08:54;102109.56;;;3.97;83.33
66887;BME280;67239;51.680;5.976;2023-03-05T00:11:26;102112.09;;;3.91;83.39
66887;BME280;67239;51.680;5.976;2023-03-05T00:13:57;102113.72;;;3.84;83.65
66887;BME280;67239;51.680;5.976;2023-03-05T00:16:25;102112.78;;;3.82;83.99
66887;BME280;67239;51.680;5.976;2023-03-05T00:18:54;102115.34;;;3.79;84.10
66887;BME280;67239;51.680;5.976;2023-03-05T00:21:36;102104.88;;;3.76;84.43
66887;BME280;67239;51.680;5.976;2023-03-05T00:24:12;102102.25;;;3.76;84.69
66887;BME280;67239;51.680;5.976;2023-03-05T00:26:43;102105.75;;;3.78;nan
66887;BME280;67239;51.680;5.976;2023-03-05T00:29:17;102103.13;;;3.78;84.90
66887;BME280;67239;51.680;5.976;2023-03-05T00:31:45;102111.00;;;3.80;85.44
66887;BME280;67239;51.680;5.976;2023-03-05T00:34:14;102102.34;;;3.81;85.78
66887;BME280;67239;51.680;5.976;2023-03-05T00:36:45;102095.38;;;3.80;85.84
66887;BME280;67239;51.680;5.976;2023-03-05T00:39:19;102098.84;;;3.80;85.86
66887;BME280;67239;51.680;5.976;2023-03-05T00:41:47;102099.72;;;3.81;86.34
66887;BME280;67239;51.680;5.976;2023-03-05T00:44:14;102095.31;;;3.78;86.29
66887;BME280;67239;51.680;5.976;2023-03-05T00:46:41;102097.91;;;3.77;86.64
66887;BME280;67239;51.680;5.976;2023-03-05T00:49:08;102097.91;;;3.77;86.70
66887;BME280;67239;51.680;5.976;2023-03-05T00:51:35;102083.94;;;3.75;86.71
66887;BME280;67239;51.680;5.976;2023-03-05T00:54:03;102086.56;;;3.75;86.55
66887;BME280;67239;51.680;5.976;2023-03-05T00:56:31;102076.13;;;3.75;87.04
66887;BME280;67239;51.680;5.976;2023-03-05T00:58:59;102081.28;;;3.71;86.81
66887;BME280;67239;51.680;5.976;2023-03-05T01:01:26;102081.31;;;3.73;87.15
66887;BME280;67239;51.680;5.976;2023-03-05T01:03:54;102076.97;;;3.72;87.16
66887;BME280;67239;51.680;5.976;2023-03-05T01:06:25;102076.06;;;3.71;86.87
66887;BME280;67239;51.680;5.976;2023-03-05T01:08:53;102063.84;;;3.69;86.61
66887;BME280;67239;51.680;5.976;2023-03-05T01:11:20;102066.47;;;3.69;86.69
66887;BME280;67239;51.680;5.976;2023-03-05T01:13:47;102053.31;;;3.61;86.88
66887;BME280;67239;51.680;5.976;2023-03-05T01:16:14;102059.44;;;3.65;86.93
66887;BME280;67239;51.680;5.976;2023-03-05T01:18:41;102057.66;;;3.62;87.12
66887;BME280;67239;51.680;5.976;2023-03-05T01:21:08;102060.22;;;3.61;87.13
66887;BME280;67239;51.680;5.976;2023-03-05T01:23:36;102057.56;;;3.57;87.20
66887;BME280;67239;51.680;5.976;2023-03-05T01:26:04;102044.50;;;3.56;87.21
66887;BME280;67239;51.680;5.976;2023-03-05T01:28:33;102052.34;;;3.57;87.65
66887;BME280;67239;51.680;5.976;2023-03-05T01:31:00;102052.31;;;3.56;87.94
66887;BME280;67239;51.680;5.976;2023-03-05T01:33:27;102041.91;;;3.56;87.66
66887;BME280;67239;51.680;5.976;2023-03-05T01:35:54;102045.34;;;3.55;87.67
66887;BME280;67239;51.680;5.976;2023-03-05T01:38:21;102042.75;;;3.55;87.83
66887;BME280;67239;51.680;5.976;2023-03-05T01:40:49;102040.13;;;3.55;87.80
66887;BME280;67239;51.680;5.976;2023-03-05T01:43:27;102035.84;;;3.57;88.02
66887;BME280;67239;51.680;5.976;2023-03-05T01:48:41;102027.94;;;3.54;87.79
66887;BME280;67239;51.680;5.976;2023-03-05T01:51:13;102020.09;;;3.51;88.08
66887;BME280;67239;51.680;5.976;2023-03-05T01:53:41;102020.03;;;3.49;88.24
66887;BME280;67239;51.680;5.976;2023-03-05T01:56:08;102014.81;;;3.49;88.08
66887;BME280;67239;51.680;5.976;2023-03-05T01:58:36;102009.63;;;3.49;87.99
66887;BME280;67239;51.680;5.976;2023-03-05T02:01:05;102009.63;;;3.49;87.98
66887;BME280;67239;51.680;5.976;2023-03-05T02:03:33;101999.13;;;3.46;87.91
66887;BME280;67239;51.680;5.976;2023-03-05T02:06:01;102004.38;;;3.48;87.77
66887;BME280;67239;51.680;5.976;2023-03-05T02:08:28;101996.50;;;3.45;87.91
66887;BME280;67239;51.680;5.976;2023-03-05T02:10:55;101988.69;;;3.45;87.84
66887;BME280;67239;51.680;5.976;2023-03-05T02:13:28;101985.16;;;3.42;87.78
66887;BME280;67239;51.680;5.976;2023-03-05T02:16:01;101994.72;;;3.44;87.72
66887;BME280;67239;51.680;5.976;2023-03-05T02:18:28;101985.16;;;3.42;87.63
66887;BME280;67239;51.680;5.976;2023-03-05T02:23:25;101974.72;;;3.42;87.57
66887;BME280;67239;51.680;5.976;2023-03-05T02:25:55;101971.28;;;3.44;87.62
66887;BME280;67239;51.680;5.976;2023-03-05T02:31:16;101963.50;;;3.45;87.55
66887;BME280;67239;51.680;5.976;2023-03-05T02:33:46;101963.50;;;3.45;87.43
66887;BME280;67239;51.680;5.976;2023-03-05T02:36:16;101961.75;;;3.44;87.54
66887;BME280;67239;51.680;5.976;2023-03-05T02:38:44;101962.59;;;3.43;87.59
66887;BME280;67239;51.680;5.976;2023-03-05T02:41:12;101960.00;;;3.45;87.53
66887;BME280;67239;51.680;5.976;2023-03-05T02:43:41;101948.72;;;3.46;87.66
66887;BME280;67239;51.680;5.976;2023-03-05T02:46:09;101940.91;;;3.47;87.68
66887;BME280;67239;51.680;5.976;2023-03-05T02:48:38;101931.38;;;3.48;87.76
66887;BME280;67239;51.680;5.976;2023-03-05T02:51:06;101934.03;;;3.51;87.76
66887;BME280;67239;51.680;5.976;2023-03-05T02:53:34;101928.00;;;3.55;87.93
66887;BME280;67239;51.680;5.976;2023-03-05T02:56:02;101924.56;;;3.57;87.55
66887;BME280;67239;51.680;5.976;2023-03-05T02:58:32;101934.13;;;3.57;87.59
66887;BME280;67239;51.680;5.976;2023-03-05T03:00:59;101931.50;;;3.55;87.68
66887;BME280;67239;51.680;5.976;2023-03-05T03:03:27;101923.69;;;3.55;87.62
66887;BME280;67239;51.680;5.976;2023-03-05T03:05:54;101915.03;;;3.58;87.81
66887;BME280;67239;51.680;5.976;2023-03-05T03:08:21;101911.53;;;3.57;87.67
66887;BME280;67239;51.680;5.976;2023-03-05T03:10:48;101903.69;;;3.57;87.73
66887;BME280;67239;51.680;5.976;2023-03-05T03:13:15;101908.06;;;3.58;87.88
66887;BME280;67239;51.680;5.976;2023-03-05T03:15:42;101900.28;;;3.60;87.81
66887;BME280;67239;51.680;5.976;2023-03-05T03:18:09;101900.31;;;3.62;87.98
66887;BME280;67239;51.680;5.976;2023-03-05T03:20:37;101891.63;;;3.63;87.54
66887;BME280;67239;51.680;5.976;2023-03-05T03:23:05;101895.09;;;3.62;87.49
66887;BME280;67239;51.680;5.976;2023-03-05T03:25:33;101892.47;;;3.62;87.32
66887;BME280;67239;51.680;5.976;2023-03-05T03:28:00;101890.72;;;3.61;87.42
66887;BME280;67239;51.680;5.976;2023-03-05T03:30:28;101876.84;;;3.62;87.26
66887;BME280;67239;51.680;5.976;2023-03-05T03:32:55;101885.50;;;3.61;87.33
66887;BME280;67239;51.680;5.976;2023-03-05T03:35:22;101887.22;;;3.58;87.33
66887;BME280;67239;51.680;5.976;2023-03-05T03:37:49;101887.19;;;3.57;87.19
66887;BME280;67239;51.680;5.976;2023-03-05T03:40:16;101878.47;;;3.55;86.95
66887;BME280;67239;51.680;5.976;2023-03-05T03:42:43;101883.66;;;3.53;86.80
66887;BME280;67239;51.680;5.976;2023-03-05T03:45:11;101884.53;;;3.52;86.91
66887;BME280;67239;51.680;5.976;2023-03-05T03:47:38;101881.00;;;3.49;86.71
66887;BME280;67239;51.680;5.976;2023-03-05T03:50:06;101884.44;;;3.48;86.74
66887;BME280;67239;51.680;5.976;2023-03-05T03:52:33;101878.31;;;3.46;86.80
66887;BME280;67239;51.680;5.976;2023-03-05T03:55:01;101869.59;;;3.42;86.91
66887;BME280;67239;51.680;5.976;2023-03-05T03:57:29;101867.84;;;3.42;87.10
66887;BME280;67239;51.680;5.976;2023-03-05T03:59:56;101860.00;;;3.42;87.10
66887;BME280;67239;51.680;5.976;2023-03-05T04:02:24;101866.97;;;3.42;87.22
66887;BME280;67239;51.680;5.976;2023-03-05T04:04:51;101857.41;;;3.42;87.15
66887;BME280;67239;51.680;5.976;2023-03-05T04:07:19;101858.31;;;3.43;87.26
66887;BME280;67239;51.680;5.976;2023-03-05T04:09:46;101855.69;;;3.43;87.13
66887;BME280;67239;51.680;5.976;2023-03-05T04:12:13;101850.44;;;3.40;87.43
66887;BME280;67239;51.680;5.976;2023-03-05T04:14:45;101841.69;;;3.38;87.37
66887;BME280;67239;51.680;5.976;2023-03-05T04:17:14;101840.91;;;3.40;87.52
66887;BME280;67239;51.680;5.976;2023-03-05T04:19:42;101836.53;;;3.41;87.49
66887;BME280;67239;51.680;5.976;2023-03-05T04:22:11;101831.31;;;3.41;87.47
66887;BME280;67239;51.680;5.976;2023-03-05T04:24:41;101826.91;;;3.37;87.44
66887;BME280;67239;51.680;5.976;2023-03-05T04:27:09;101827.81;;;3.37;87.61
66887;BME280;67239;51.680;5.976;2023-03-05T04:29:37;101827.81;;;3.37;87.67
66887;BME280;67239;51.680;5.976;2023-03-05T04:32:05;101826.06;;;3.38;87.64
66887;BME280;67239;51.680;5.976;2023-03-05T04:34:32;101829.50;;;3.35;87.65
66887;BME280;67239;51.680;5.976;2023-03-05T04:37:00;101819.91;;;3.33;87.79
66887;BME280;67239;51.680;5.976;2023-03-05T04:39:28;101826.88;;;3.34;87.66
66887;BME280;67239;51.680;5.976;2023-03-05T04:41:55;101822.47;;;3.31;87.91
66887;BME280;67239;51.680;5.976;2023-03-05T04:44:22;101827.69;;;3.31;87.88
66887;BME280;67239;51.680;5.976;2023-03-05T04:46:51;101823.34;;;3.30;88.36
66887;BME280;67239;51.680;5.976;2023-03-05T04:49:19;101825.06;;;3.30;88.34
66887;BME280;67239;51.680;5.976;2023-03-05T04:51:46;101816.31;;;3.26;88.41
66887;BME280;67239;51.680;5.976;2023-03-05T04:54:13;101814.56;;;3.25;88.33
66887;BME280;67239;51.680;5.976;2023-03-05T04:56:40;101821.53;;;3.26;88.57
66887;BME280;67239;51.680;5.976;2023-03-05T04:59:07;101818.06;;;3.25;88.63
66887;BME280;67239;51.680;5.976;2023-03-05T05:01:34;101810.22;;;3.24;88.76
66887;BME280;67239;51.680;5.976;2023-03-05T05:04:01;101815.41;;;3.24;88.82
66887;BME280;67239;51.680;5.976;2023-03-05T05:06:28;101810.22;;;3.24;88.76
66887;BME280;67239;51.680;5.976;2023-03-05T05:08:55;101809.31;;;3.22;88.74
66887;BME280;67239;51.680;5.976;2023-03-05T05:11:22;101801.47;;;3.19;88.74
66887;BME280;67239;51.680;5.976;2023-03-05T05:13:49;101804.06;;;3.19;88.99
66887;BME280;67239;51.680;5.976;2023-03-05T05:16:16;101804.00;;;3.16;88.89
66887;BME280;67239;51.680;5.976;2023-03-05T05:18:43;101805.69;;;3.12;89.19
66887;BME280;67239;51.680;5.976;2023-03-05T05:21:12;101792.63;;;3.10;89.45
66887;BME280;67239;51.680;5.976;2023-03-05T05:23:40;101794.38;;;3.11;89.49
66887;BME280;67239;51.680;5.976;2023-03-05T05:26:08;101785.75;;;3.14;89.67
66887;BME280;67239;51.680;5.976;2023-03-05T05:28:35;101787.53;;;3.17;89.60
66887;BME280;67239;51.680;5.976;2023-03-05T05:31:08;101783.22;;;3.19;89.69
66887;BME280;67239;51.680;5.976;2023-03-05T05:33:38;101791.03;;;3.19;89.67
66887;BME280;67239;51.680;5.976;2023-03-05T05:36:07;101781.47;;;3.19;89.63
66887;BME280;67239;51.680;5.976;2023-03-05T05:38:37;101783.22;;;3.20;89.71
66887;BME280;67239;51.680;5.976;2023-03-05T05:41:07;101778.03;;;3.22;89.63
66887;BME280;67239;51.680;5.976;2023-03-05T05:43:36;101773.66;;;3.21;89.66
66887;BME280;67239;51.680;5.976;2023-03-05T05:46:06;101780.69;;;3.23;89.44
66887;BME280;67239;51.680;5.976;2023-03-05T05:48:37;101767.66;;;3.23;89.61
66887;BME280;67239;51.680;5.976;2023-03-05T05:51:09;101770.25;;;3.25;89.58
66887;BME280;67239;51.680;5.976;2023-03-05T05:53:39;101775.47;;;3.25;89.80
66887;BME280;67239;51.680;5.976;2023-03-05T05:56:10;101767.72;;;3.30;89.76
66887;BME280;67239;51.680;5.976;2023-03-05T05:58:40;101762.50;;;3.28;89.63
66887;BME280;67239;51.680;5.976;2023-03-05T06:01:25;101766.88;;;3.31;89.63
66887;BME280;67239;51.680;5.976;2023-03-05T06:03:57;101772.94;;;3.30;89.70
66887;BME280;67239;51.680;5.976;2023-03-05T06:06:26;101764.25;;;3.29;89.69
66887;BME280;67239;51.680;5.976;2023-03-05T06:08:54;101769.50;;;3.32;89.75
66887;BME280;67239;51.680;5.976;2023-03-05T06:11:23;101765.13;;;3.30;89.48
66887;BME280;67239;51.680;5.976;2023-03-05T06:13:50;101763.34;;;3.27;89.39
66887;BME280;67239;51.680;5.976;2023-03-05T06:16:20;101769.44;;;3.28;89.41
66887;BME280;67239;51.680;5.976;2023-03-05T06:18:50;101765.06;;;3.25;89.44
66887;BME280;67239;51.680;5.976;2023-03-05T06:21:19;101768.56;;;3.25;89.45
66887;BME280;67239;51.680;5.976;2023-03-05T06:23:48;101769.34;;;3.23;89.39
66887;BME280;67239;51.680;5.976;2023-03-05T06:26:19;101764.13;;;3.20;89.55
66887;BME280;67239;51.680;5.976;2023-03-05T06:28:47;101764.94;;;3.17;89.54
66887;BME280;67239;51.680;5.976;2023-03-05T06:31:20;101761.44;;;3.15;89.88
66887;BME280;67239;51.680;5.976;2023-03-05T06:33:49;101763.16;;;3.15;89.85
66887;BME280;67239;51.680;5.976;2023-03-05T06:36:18;101764.00;;;3.12;89.92
66887;BME280;67239;51.680;5.976;2023-03-05T06:38:47;101764.00;;;3.14;90.26
66887;BME280;67239;51.680;5.976;2023-03-05T06:41:23;101759.69;;;3.14;90.51
66887;BME280;67239;51.680;5.976;2023-03-05T06:43:55;101756.19;;;3.14;90.54
66887;BME280;67239;51.680;5.976;2023-03-05T06:46:27;101757.09;;;3.16;90.70
66887;BME280;67239;51.680;5.976;2023-03-05T06:48:57;101758.03;;;3.19;90.81
66887;BME280;67239;51.680;5.976;2023-03-05T06:51:31;101761.53;;;3.21;91.02
66887;BME280;67239;51.680;5.976;2023-03-05T06:54:02;101758.09;;;3.24;91.09
66887;BME280;67239;51.680;5.976;2023-03-05T06:56:34;101757.31;;;3.30;91.29
66887;BME280;67239;51.680;5.976;2023-03-05T06:59:03;101759.97;;;3.33;91.05
66887;BME280;67239;51.680;5.976;2023-03-05T07:01:31;101760.81;;;3.33;90.99
66887;BME280;67239;51.680;5.976;2023-03-05T07:04:01;101758.28;;;3.38;90.97
66887;BME280;67239;51.680;5.976;2023-03-05T07:06:37;101751.38;;;3.40;90.82
66887;BME280;67239;51.680;5.976;2023-03-05T07:09:06;101754.03;;;3.43;90.64
66887;BME280;67239;51.680;5.976;2023-03-05T07:11:34;101753.16;;;3.44;90.63
66887;BME280;67239;51.680;5.976;2023-03-05T07:14:02;101743.59;;;3.43;90.19
66887;BME280;67239;51.680;5.976;2023-03-05T07:16:31;101749.66;;;3.44;90.28
66887;BME280;67239;51.680;5.976;2023-03-05T07:19:02;101747.09;;;3.45;90.30
66887;BME280;67239;51.680;5.976;2023-03-05T07:21:32;101744.50;;;3.48;90.57
66887;BME280;67239;51.680;5.976;2023-03-05T07:24:01;101744.63;;;3.54;90.78
66887;BME280;67239;51.680;5.976;2023-03-05T07:26:28;101739.47;;;3.61;90.63
66887;BME280;67239;51.680;5.976;2023-03-05T07:28:56;101742.13;;;3.65;90.20
66887;BME280;67239;51.680;5.976;2023-03-05T07:31:24;101743.03;;;3.66;90.17
66887;BME280;67239;51.680;5.976;2023-03-05T07:33:57;101739.59;;;3.71;90.14
66887;BME280;67239;51.680;5.976;2023-03-05T07:36:26;101748.38;;;3.77;90.08
66887;BME280;67239;51.680;5.976;2023-03-05T07:38:53;101743.16;;;3.78;89.29
66887;BME280;67239;51.680;5.976;2023-03-05T07:41:21;101742.34;;;3.82;89.55
66887;BME280;67239;51.680;5.976;2023-03-05T07:43:51;101740.69;;;3.89;89.97
66887;BME280;67239;51.680;5.976;2023-03-05T07:46:22;101739.94;;;3.99;89.75
66887;BME280;67239;51.680;5.976;2023-03-05T07:48:52;101742.63;;;4.07;89.36
66887;BME280;67239;51.680;5.976;2023-03-05T07:51:21;101734.03;;;4.16;89.51
66887;BME280;67239;51.680;5.976;2023-03-05T07:53:51;101740.25;;;4.27;89.56
66887;BME280;67239;51.680;5.976;2023-03-05T07:58:50;101736.09;;;4.49;89.17
66887;BME280;67239;51.680;5.976;2023-03-05T08:01:18;101733.56;;;4.57;88.56
66887;BME280;67239;51.680;5.976;2023-03-05T08:03:45;101731.84;;;4.61;88.33
66887;BME280;67239;51.680;5.976;2023-03-05T08:06:12;101731.03;;;4.66;87.79
66887;BME280;67239;51.680;5.976;2023-03-05T08:08:39;101722.31;;;4.68;86.54
66887;BME280;67239;51.680;5.976;2023-03-05T08:11:09;101725.78;;;4.68;86.56
66887;BME280;67239;51.680;5.976;2023-03-05T08:13:40;101719.72;;;4.69;86.43
66887;BME280;67239;51.680;5.976;2023-03-05T08:16:15;101711.06;;;4.72;86.89
66887;BME280;67239;51.680;5.976;2023-03-05T08:18:44;101718.03;;;4.74;86.07
66887;BME280;67239;51.680;5.976;2023-03-05T08:21:20;101707.50;;;4.68;86.19
66887;BME280;67239;51.680;5.976;2023-03-05T08:23:49;101713.59;;;4.65;86.33
66887;BME280;67239;51.680;5.976;2023-03-05T08:26:18;101711.84;;;4.63;86.62
66887;BME280;67239;51.680;5.976;2023-03-05T08:28:49;101721.41;;;4.61;86.22
66887;BME280;67239;51.680;5.976;2023-03-05T08:31:22;101708.34;;;4.59;86.58
66887;BME280;67239;51.680;5.976;2023-03-05T08:33:54;101706.63;;;4.61;86.33
66887;BME280;67239;51.680;5.976;2023-03-05T08:36:22;101702.25;;;4.60;86.08
66887;BME280;67239;51.680;5.976;2023-03-05T08:38:49;101700.53;;;4.62;86.23
66887;BME280;67239;51.680;5.976;2023-03-05T08:41:17;101701.47;;;4.72;86.54
66887;BME280;67239;51.680;5.976;2023-03-05T08:43:45;101691.06;;;4.80;86.28
66887;BME280;67239;51.680;5.976;2023-03-05T08:46:14;101701.63;;;4.92;85.73
66887;BME280;67239;51.680;5.976;2023-03-05T08:48:41;101699.94;;;5.01;84.86
66887;BME280;67239;51.680;5.976;2023-03-05T08:51:13;101692.13;;;5.07;84.85
66887;BME280;67239;51.680;5.976;2023-03-05T08:53:43;101693.03;;;5.13;84.13
66887;BME280;67239;51.680;5.976;2023-03-05T08:56:12;101694.81;;;5.18;84.02
66887;BME280;67239;51.680;5.976;2023-03-05T08:58:40;101684.34;;;5.21;83.54
66887;BME280;67239;51.680;5.976;2023-03-05T09:01:09;101682.66;;;5.27;83.57
66887;BME280;67239;51.680;5.976;2023-03-05T09:03:37;101673.97;;;5.38;83.48
66887;BME280;67239;51.680;5.976;2023-03-05T09:06:07;101672.28;;;5.46;83.94
66887;BME280;67239;51.680;5.976;2023-03-05T09:08:35;101676.69;;;5.56;82.95
66887;BME280;67239;51.680;5.976;2023-03-05T09:11:05;101673.25;;;5.68;82.90
66887;BME280;67239;51.680;5.976;2023-03-05T09:13:34;101680.25;;;5.86;82.02
66887;BME280;67239;51.680;5.976;2023-03-05T09:16:04;101663.72;;;5.94;79.44
66887;BME280;67239;51.680;5.976;2023-03-05T09:18:34;101670.72;;;6.02;79.67
66887;BME280;67239;51.680;5.976;2023-03-05T09:21:07;101676.88;;;6.12;79.88
66887;BME280;67239;51.680;5.976;2023-03-05T09:23:37;101667.28;;;6.25;79.23
66887;BME280;67239;51.680;5.976;2023-03-05T09:26:06;101666.41;;;6.32;78.61
66887;BME280;67239;51.680;5.976;2023-03-05T09:28:34;101670.78;;;6.41;79.63
66887;BME280;67239;51.680;5.976;2023-03-05T09:31:05;101664.66;;;6.48;80.55
66887;BME280;67239;51.680;5.976;2023-03-05T09:33:34;101668.16;;;6.60;80.85
66887;BME280;67239;51.680;5.976;2023-03-05T09:36:03;101649.81;;;6.67;79.36
66887;BME280;67239;51.680;5.976;2023-03-05T09:38:32;101655.06;;;6.66;78.71
66887;BME280;67239;51.680;5.976;2023-03-05T09:41:57;101655.06;;;6.71;78.22
66887;BME280;67239;51.680;5.976;2023-03-05T09:52:53;101643.69;;;6.53;76.84
66887;BME280;67239;51.680;5.976;2023-03-05T09:55:31;101636.72;;;6.52;77.48
66887;BME280;67239;51.680;5.976;2023-03-05T09:58:18;101634.09;;;6.52;76.95
66887;BME280;67239;51.680;5.976;2023-03-05T10:01:05;101630.63;;;6.55;76.94
66887;BME280;67239;51.680;5.976;2023-03-05T10:03:57;101632.38;;;6.60;76.17
66887;BME280;67239;51.680;5.976;2023-03-05T10:06:36;101632.38;;;6.60;75.90
66887;BME280;67239;51.680;5.976;2023-03-05T10:11:53;101626.28;;;6.40;76.28
66887;BME280;67239;51.680;5.976;2023-03-05T10:14:25;101621.91;;;6.29;75.79
66887;BME280;67239;51.680;5.976;2023-03-05T10:26:12;101624.41;;;5.67;75.60
66887;BME280;67239;51.680;5.976;2023-03-05T10:37:16;101621.59;;;5.21;78.53
66887;BME280;67239;51.680;5.976;2023-03-05T10:45:49;101614.53;;;4.93;80.86
66887;BME280;67239;51.680;5.976;2023-03-05T10:48:27;101601.50;;;5.03;81.79
66887;BME280;67239;51.680;5.976;2023-03-05T10:51:18;101605.09;;;5.23;82.29
66887;BME280;67239;51.680;5.976;2023-03-05T10:54:01;101593.81;;;5.43;82.06
66887;BME280;67239;51.680;5.976;2023-03-05T10:56:37;101590.38;;;5.61;81.04
66887;BME280;67239;51.680;5.976;2023-03-05T10:59:06;101581.66;;;5.76;81.03
66887;BME280;67239;51.680;5.976;2023-03-05T11:01:33;101581.72;;;5.95;80.86
66887;BME280;67239;51.680;5.976;2023-03-05T11:04:02;101576.50;;;6.21;79.92
66887;BME280;67239;51.680;5.976;2023-03-05T11:06:43;101577.34;;;6.52;79.23
66887;BME280;67239;51.680;5.976;2023-03-05T11:12:19;101578.97;;;7.06;75.92
66887;BME280;67239;51.680;5.976;2023-03-05T11:17:38;101568.41;;;7.19;75.86
66887;BME280;67239;51.680;5.976;2023-03-05T11:23:18;101569.28;;;7.19;74.15
66887;BME280;67239;51.680;5.976;2023-03-05T11:25:52;101560.53;;;7.19;73.99
66887;BME280;67239;51.680;5.976;2023-03-05T11:31:04;101556.09;;;7.33;75.01
66887;BME280;67239;51.680;5.976;2023-03-05T11:36:34;101541.06;;;7.58;75.42
66887;BME280;67239;51.680;5.976;2023-03-05T11:41:36;101540.06;;;7.78;75.36
66887;BME280;67239;51.680;5.976;2023-03-05T11:44:54;101540.88;;;7.86;75.22
66887;BME280;67239;51.680;5.976;2023-03-05T11:47:38;101536.41;;;7.98;74.91
66887;BME280;67239;51.680;5.976;2023-03-05T11:50:26;101525.84;;;8.05;74.29
66887;BME280;67239;51.680;5.976;2023-03-05T11:53:04;101523.19;;;8.10;74.24
66887;BME280;67239;51.680;5.976;2023-03-05T11:59:27;101509.69;;;8.46;72.83
66887;BME280;67239;51.680;5.976;2023-03-05T12:02:00;101500.91;;;8.45;70.39
66887;BME280;67239;51.680;5.976;2023-03-05T12:04:28;101502.72;;;8.43;71.58
66887;BME280;67239;51.680;5.976;2023-03-05T12:07:00;101493.97;;;8.41;71.23
66887;BME280;67239;51.680;5.976;2023-03-05T12:09:40;101494.84;;;8.43;72.58
66887;BME280;67239;51.680;5.976;2023-03-05T12:12:22;101480.78;;;8.47;72.32
66887;BME280;67239;51.680;5.976;2023-03-05T12:14:57;101472.84;;;8.53;70.75
66887;BME280;67239;51.680;5.976;2023-03-05T12:17:53;101469.34;;;8.54;69.94
66887;BME280;67239;51.680;5.976;2023-03-05T12:20:47;101468.38;;;8.60;68.56
66887;BME280;67239;51.680;5.976;2023-03-05T12:23:48;101465.81;;;8.57;67.96
66887;BME280;67239;51.680;5.976;2023-03-05T12:26:15;101457.91;;;8.57;68.67
66887;BME280;67239;51.680;5.976;2023-03-05T12:34:44;101437.84;;;8.50;66.10
66887;BME280;67239;51.680;5.976;2023-03-05T12:47:38;101432.78;;;8.33;64.60
66887;BME280;67239;51.680;5.976;2023-03-05T12:53:18;101416.25;;;8.21;63.09
66887;BME280;67239;51.680;5.976;2023-03-05T12:56:01;101415.38;;;8.21;62.78
66887;BME280;67239;51.680;5.976;2023-03-05T13:01:30;101393.25;;;8.40;63.69
66887;BME280;67239;51.680;5.976;2023-03-05T13:04:10;101397.41;;;8.62;62.37
66887;BME280;67239;51.680;5.976;2023-03-05T13:06:43;101384.25;;;8.63;60.94
66887;BME280;67239;51.680;5.976;2023-03-05T13:09:22;101380.72;;;8.64;61.45
66887;BME280;67239;51.680;5.976;2023-03-05T13:11:55;101371.06;;;8.65;61.99
66887;BME280;67239;51.680;5.976;2023-03-05T13:14:32;101368.34;;;8.73;61.63
66887;BME280;67239;51.680;5.976;2023-03-05T13:25:34;101365.25;;;9.05;60.08
66887;BME280;67239;51.680;5.976;2023-03-05T13:28:13;101360.00;;;9.04;58.43
66887;BME280;67239;51.680;5.976;2023-03-05T13:30:51;101353.09;;;8.96;58.10
66887;BME280;67239;51.680;5.976;2023-03-05T13:33:33;101345.34;;;8.85;57.05
66887;BME280;67239;51.680;5.976;2023-03-05T13:36:03;101348.19;;;8.72;57.86
66887;BME280;67239;51.680;5.976;2023-03-05T13:38:42;101338.66;;;8.64;58.29
66887;BME280;67239;51.680;5.976;2023-03-05T13:43:51;101337.13;;;8.46;57.29
66887;BME280;67239;51.680;5.976;2023-03-05T13:46:30;101336.31;;;8.44;57.83
66887;BME280;67239;51.680;5.976;2023-03-05T13:49:25;101330.16;;;8.44;58.66
66887;BME280;67239;51.680;5.976;2023-03-05T13:51:56;101317.94;;;8.41;58.51
66887;BME280;67239;51.680;5.976;2023-03-05T13:54:26;101319.69;;;8.42;58.00
66887;BME280;67239;51.680;5.976;2023-03-05T13:59:32;101319.78;;;8.34;58.35
66887;BME280;67239;51.680;5.976;2023-03-05T14:02:15;101315.41;;;8.33;58.56
66887;BME280;67239;51.680;5.976;2023-03-05T14:04:46;101313.66;;;8.34;59.21
66887;BME280;67239;51.680;5.976;2023-03-05T14:09:48;101309.22;;;8.36;59.22
66887;BME280;67239;51.680;5.976;2023-03-05T14:12:37;101295.25;;;8.35;60.07
66887;BME280;67239;51.680;5.976;2023-03-05T14:15:23;101290.72;;;8.45;60.78
66887;BME280;67239;51.680;5.976;2023-03-05T14:20:40;101292.41;;;8.52;57.84
66887;BME280;67239;51.680;5.976;2023-03-05T14:26:19;101285.53;;;8.40;57.65
66887;BME280;67239;51.680;5.976;2023-03-05T14:28:56;101288.22;;;8.37;57.68
66887;BME280;67239;51.680;5.976;2023-03-05T14:31:28;101277.56;;;8.45;57.78
66887;BME280;67239;51.680;5.976;2023-03-05T14:34:04;101267.06;;;8.47;57.49
66887;BME280;67239;51.680;5.976;2023-03-05T14:36:33;101260.94;;;8.45;58.81
66887;BME280;67239;51.680;5.976;2023-03-05T14:39:00;101261.81;;;8.47;58.35
66887;BME280;67239;51.680;5.976;2023-03-05T14:41:40;101260.09;;;8.43;58.75
66887;BME280;67239;51.680;5.976;2023-03-05T14:44:11;101248.81;;;8.37;58.33
66887;BME280;67239;51.680;5.976;2023-03-05T14:46:47;101248.94;;;8.28;58.53
66887;BME280;67239;51.680;5.976;2023-03-05T14:49:16;101245.44;;;8.28;57.86
66887;BME280;67239;51.680;5.976;2023-03-05T14:51:44;101246.44;;;8.17;57.98
66887;BME280;67239;51.680;5.976;2023-03-05T14:54:21;101235.22;;;8.07;58.19
66887;BME280;67239;51.680;5.976;2023-03-05T14:56:51;101230.03;;;8.01;58.50
66887;BME280;67239;51.680;5.976;2023-03-05T14:59:19;101233.53;;;8.02;58.58
66887;BME280;67239;51.680;5.976;2023-03-05T15:01:49;101235.34;;;7.98;57.82
66887;BME280;67239;51.680;5.976;2023-03-05T15:04:16;101220.53;;;7.91;57.70
66887;BME280;67239;51.680;5.976;2023-03-05T15:06:47;101222.31;;;7.89;58.12
66887;BME280;67239;51.680;5.976;2023-03-05T15:09:17;101220.59;;;7.88;58.34
66887;BME280;67239;51.680;5.976;2023-03-05T15:11:47;101217.09;;;7.87;58.31